RPA5658 KJFK-KCMH
Flight info
| Callsign | RPA5658 |
|---|---|
| Flight time | 1h 20m |
| Altitude | 32000 |
| Route | RBV Q430 AIR CLPRR3 |
| Aircraft | E75L/M-SDE3GILORVW/S |
Departure
| Time | 2026-05-01 12:12 |
|---|---|
| Airport | John F. Kennedy International Airport (KJFK) |
Arrival
| Time | 2026-05-01 13:33 |
|---|---|
| Airport | John Glenn Columbus International Airport (KCMH) |
| Time | Latitude | Longitude | Altitude | Speed | Heading |
|---|---|---|---|---|---|
| 2026-05-01 11:55 | 40.64121 | -73.77809 | 21 ft | 0 kts | 337° |
| 2026-05-01 12:03 | 40.64112 | -73.77804 | 21 ft | 3 kts | 334° |
| 2026-05-01 12:03 | 40.64097 | -73.77790 | 21 ft | 3 kts | 301° |
| 2026-05-01 12:03 | 40.64096 | -73.77772 | 21 ft | 2 kts | 240° |
| 2026-05-01 12:03 | 40.64105 | -73.77752 | 21 ft | 2 kts | 240° |
| 2026-05-01 12:04 | 40.64108 | -73.77745 | 21 ft | 0 kts | 240° |
| 2026-05-01 12:06 | 40.64107 | -73.77747 | 23 ft | 1 kts | 240° |
| 2026-05-01 12:06 | 40.64099 | -73.77766 | 21 ft | 4 kts | 240° |
| 2026-05-01 12:06 | 40.64081 | -73.77807 | 21 ft | 7 kts | 240° |
| 2026-05-01 12:07 | 40.64048 | -73.77885 | 21 ft | 12 kts | 240° |
| 2026-05-01 12:07 | 40.63985 | -73.77977 | 21 ft | 14 kts | 199° |
| 2026-05-01 12:07 | 40.63917 | -73.77909 | 21 ft | 14 kts | 127° |
| 2026-05-01 12:07 | 40.63860 | -73.77798 | 21 ft | 15 kts | 124° |
| 2026-05-01 12:08 | 40.63791 | -73.77705 | 21 ft | 0 kts | 142° |
| 2026-05-01 12:08 | 40.63783 | -73.77697 | 21 ft | 4 kts | 142° |
| 2026-05-01 12:08 | 40.63733 | -73.77661 | 18 ft | 12 kts | 172° |
| 2026-05-01 12:08 | 40.63648 | -73.77611 | 18 ft | 15 kts | 130° |
| 2026-05-01 12:09 | 40.63590 | -73.77494 | 20 ft | 16 kts | 121° |
| 2026-05-01 12:09 | 40.63530 | -73.77364 | 21 ft | 18 kts | 121° |
| 2026-05-01 12:09 | 40.63464 | -73.77216 | 22 ft | 19 kts | 120° |
| 2026-05-01 12:09 | 40.63393 | -73.77054 | 20 ft | 23 kts | 120° |
| 2026-05-01 12:10 | 40.63310 | -73.76940 | 19 ft | 14 kts | 190° |
| 2026-05-01 12:10 | 40.63092 | -73.76968 | 19 ft | 19 kts | 203° |
| 2026-05-01 12:10 | 40.62977 | -73.77065 | 20 ft | 20 kts | 214° |
| 2026-05-01 12:11 | 40.62838 | -73.77266 | 23 ft | 14 kts | 301° |
| 2026-05-01 12:11 | 40.62900 | -73.77400 | 25 ft | 34 kts | 301° |
| 2026-05-01 12:11 | 40.63164 | -73.77979 | 28 ft | 114 kts | 301° |
| 2026-05-01 12:12 | 40.63685 | -73.79126 | 225 ft | 165 kts | 302° |
| 2026-05-01 12:12 | 40.64282 | -73.80450 | 1099 ft | 177 kts | 303° |
| 2026-05-01 12:12 | 40.64923 | -73.81947 | 1784 ft | 194 kts | 297° |
| 2026-05-01 12:12 | 40.65226 | -73.83697 | 2574 ft | 201 kts | 271° |
| 2026-05-01 12:13 | 40.64775 | -73.85498 | 3394 ft | 214 kts | 240° |
| 2026-05-01 12:13 | 40.63755 | -73.87087 | 3902 ft | 244 kts | 229° |
| 2026-05-01 12:13 | 40.62438 | -73.88538 | 4828 ft | 249 kts | 220° |
| 2026-05-01 12:13 | 40.61023 | -73.89947 | 5505 ft | 261 kts | 225° |
| 2026-05-01 12:14 | 40.59754 | -73.91646 | 6268 ft | 265 kts | 232° |
| 2026-05-01 12:14 | 40.58523 | -73.93467 | 7138 ft | 267 kts | 232° |
| 2026-05-01 12:14 | 40.57271 | -73.95296 | 7986 ft | 269 kts | 232° |
| 2026-05-01 12:14 | 40.56011 | -73.97138 | 8800 ft | 272 kts | 231° |
| 2026-05-01 12:15 | 40.54735 | -73.99003 | 9617 ft | 274 kts | 231° |
| 2026-05-01 12:15 | 40.53459 | -74.00878 | 10366 ft | 282 kts | 232° |
| 2026-05-01 12:15 | 40.52125 | -74.02844 | 10963 ft | 291 kts | 232° |
| 2026-05-01 12:15 | 40.50766 | -74.04845 | 11761 ft | 295 kts | 232° |
| 2026-05-01 12:16 | 40.49414 | -74.06825 | 12647 ft | 294 kts | 232° |
| 2026-05-01 12:16 | 40.48044 | -74.08830 | 13573 ft | 296 kts | 232° |
| 2026-05-01 12:16 | 40.46672 | -74.10839 | 14477 ft | 296 kts | 232° |
| 2026-05-01 12:16 | 40.45291 | -74.12864 | 15386 ft | 298 kts | 233° |
| 2026-05-01 12:17 | 40.43905 | -74.14893 | 16288 ft | 299 kts | 233° |
| 2026-05-01 12:17 | 40.42505 | -74.16941 | 17151 ft | 301 kts | 233° |
| 2026-05-01 12:17 | 40.41103 | -74.18997 | 17998 ft | 303 kts | 233° |
| 2026-05-01 12:17 | 40.39688 | -74.21066 | 18794 ft | 306 kts | 233° |
| 2026-05-01 12:18 | 40.38257 | -74.23159 | 19554 ft | 309 kts | 233° |
| 2026-05-01 12:18 | 40.36815 | -74.25271 | 20257 ft | 312 kts | 233° |
| 2026-05-01 12:18 | 40.35355 | -74.27402 | 20931 ft | 316 kts | 233° |
| 2026-05-01 12:18 | 40.33894 | -74.29537 | 21541 ft | 319 kts | 233° |
| 2026-05-01 12:19 | 40.32404 | -74.31713 | 22162 ft | 322 kts | 233° |
| 2026-05-01 12:19 | 40.30892 | -74.33920 | 22759 ft | 326 kts | 233° |
| 2026-05-01 12:19 | 40.29368 | -74.36143 | 23341 ft | 329 kts | 233° |
| 2026-05-01 12:19 | 40.27829 | -74.38384 | 23974 ft | 332 kts | 233° |
| 2026-05-01 12:20 | 40.26277 | -74.40645 | 24576 ft | 335 kts | 233° |
| 2026-05-01 12:20 | 40.24714 | -74.42921 | 25187 ft | 338 kts | 233° |
| 2026-05-01 12:20 | 40.23133 | -74.45222 | 25736 ft | 341 kts | 233° |
| 2026-05-01 12:20 | 40.21563 | -74.47526 | 26245 ft | 344 kts | 235° |
| 2026-05-01 12:21 | 40.20290 | -74.50146 | 26740 ft | 341 kts | 248° |
| 2026-05-01 12:21 | 40.19542 | -74.53083 | 27244 ft | 341 kts | 259° |
| 2026-05-01 12:21 | 40.19215 | -74.56161 | 27738 ft | 343 kts | 263° |
| 2026-05-01 12:21 | 40.18924 | -74.59269 | 28178 ft | 346 kts | 263° |
| 2026-05-01 12:22 | 40.18654 | -74.62405 | 28639 ft | 348 kts | 263° |
| 2026-05-01 12:22 | 40.18474 | -74.64543 | 28935 ft | 350 kts | 264° |
| 2026-05-01 12:22 | 40.18133 | -74.68753 | 29490 ft | 353 kts | 264° |
| 2026-05-01 12:22 | 40.17878 | -74.71957 | 29923 ft | 355 kts | 264° |
| 2026-05-01 12:23 | 40.17714 | -74.74091 | 30193 ft | 356 kts | 264° |
| 2026-05-01 12:23 | 40.17470 | -74.77326 | 30541 ft | 359 kts | 264° |
| 2026-05-01 12:23 | 40.17226 | -74.80582 | 30912 ft | 361 kts | 264° |
| 2026-05-01 12:23 | 40.16980 | -74.83859 | 31263 ft | 363 kts | 264° |
| 2026-05-01 12:24 | 40.16735 | -74.87150 | 31605 ft | 365 kts | 264° |
| 2026-05-01 12:24 | 40.16490 | -74.90468 | 31893 ft | 368 kts | 265° |
| 2026-05-01 12:24 | 40.16246 | -74.93803 | 32127 ft | 372 kts | 265° |
| 2026-05-01 12:24 | 40.16003 | -74.97208 | 32128 ft | 381 kts | 265° |
| 2026-05-01 12:25 | 40.15255 | -75.07754 | 32035 ft | 390 kts | 265° |
| 2026-05-01 12:26 | 40.14745 | -75.14822 | 32037 ft | 391 kts | 265° |
| 2026-05-01 12:26 | 40.13974 | -75.25413 | 32032 ft | 389 kts | 265° |
| 2026-05-01 12:27 | 40.13196 | -75.35913 | 32032 ft | 389 kts | 265° |
| 2026-05-01 12:28 | 40.12324 | -75.46420 | 32042 ft | 386 kts | 264° |
| 2026-05-01 12:29 | 40.11415 | -75.56878 | 32045 ft | 386 kts | 264° |
| 2026-05-01 12:29 | 40.10506 | -75.67300 | 32046 ft | 385 kts | 264° |
| 2026-05-01 12:30 | 40.09590 | -75.77709 | 32031 ft | 384 kts | 265° |
| 2026-05-01 12:31 | 40.08978 | -75.84595 | 32038 ft | 383 kts | 264° |
| 2026-05-01 12:31 | 40.08358 | -75.91505 | 32038 ft | 383 kts | 264° |
| 2026-05-01 12:32 | 40.07734 | -75.98423 | 32041 ft | 384 kts | 264° |
| 2026-05-01 12:32 | 40.06793 | -76.08778 | 32016 ft | 376 kts | 264° |
| 2026-05-01 12:33 | 40.06185 | -76.15412 | 32028 ft | 360 kts | 264° |
| 2026-05-01 12:33 | 40.05588 | -76.21912 | 32087 ft | 367 kts | 264° |
| 2026-05-01 12:34 | 40.04966 | -76.28629 | 32070 ft | 379 kts | 264° |
| 2026-05-01 12:34 | 40.04326 | -76.35485 | 32036 ft | 382 kts | 264° |
| 2026-05-01 12:35 | 40.03678 | -76.42379 | 32043 ft | 383 kts | 264° |
| 2026-05-01 12:35 | 40.03025 | -76.49285 | 32044 ft | 383 kts | 264° |
| 2026-05-01 12:36 | 40.02365 | -76.56183 | 32039 ft | 383 kts | 264° |
| 2026-05-01 12:36 | 40.01704 | -76.63032 | 32040 ft | 383 kts | 264° |
| 2026-05-01 12:37 | 40.01036 | -76.69926 | 32049 ft | 383 kts | 264° |
| 2026-05-01 12:37 | 40.00365 | -76.76822 | 32048 ft | 382 kts | 264° |
| 2026-05-01 12:38 | 39.99690 | -76.83698 | 32052 ft | 381 kts | 264° |
| 2026-05-01 12:38 | 39.99027 | -76.90419 | 32050 ft | 370 kts | 264° |
| 2026-05-01 12:39 | 39.98368 | -76.97052 | 32046 ft | 371 kts | 264° |
| 2026-05-01 12:39 | 39.97706 | -77.03717 | 32045 ft | 370 kts | 264° |
| 2026-05-01 12:40 | 39.97034 | -77.10371 | 32045 ft | 369 kts | 264° |
| 2026-05-01 12:40 | 39.96365 | -77.16999 | 32049 ft | 369 kts | 264° |
| 2026-05-01 12:41 | 39.95693 | -77.23620 | 32048 ft | 368 kts | 264° |
| 2026-05-01 12:41 | 39.95152 | -77.30250 | 32049 ft | 367 kts | 272° |
| 2026-05-01 12:42 | 39.95351 | -77.36880 | 32026 ft | 366 kts | 271° |
| 2026-05-01 12:42 | 39.95548 | -77.43506 | 32030 ft | 366 kts | 272° |
| 2026-05-01 12:43 | 39.95753 | -77.50100 | 32043 ft | 367 kts | 272° |
| 2026-05-01 12:43 | 39.95959 | -77.56752 | 32036 ft | 367 kts | 272° |
| 2026-05-01 12:44 | 39.96163 | -77.63394 | 32049 ft | 367 kts | 272° |
| 2026-05-01 12:45 | 39.96570 | -77.76693 | 32046 ft | 367 kts | 272° |
| 2026-05-01 12:45 | 39.96766 | -77.83352 | 32043 ft | 368 kts | 272° |
| 2026-05-01 12:46 | 39.96962 | -77.90016 | 32060 ft | 368 kts | 272° |
| 2026-05-01 12:46 | 39.97151 | -77.96678 | 32046 ft | 368 kts | 272° |
| 2026-05-01 12:47 | 39.97337 | -78.03345 | 32041 ft | 368 kts | 272° |
| 2026-05-01 12:47 | 39.97518 | -78.09958 | 32042 ft | 367 kts | 272° |
| 2026-05-01 12:48 | 39.97694 | -78.16613 | 32052 ft | 367 kts | 272° |
| 2026-05-01 12:48 | 39.97870 | -78.23259 | 32059 ft | 366 kts | 271° |
| 2026-05-01 12:49 | 39.98040 | -78.29946 | 32053 ft | 367 kts | 271° |
| 2026-05-01 12:49 | 39.98206 | -78.36541 | 32041 ft | 366 kts | 271° |
| 2026-05-01 12:50 | 39.98370 | -78.43164 | 32060 ft | 365 kts | 271° |
| 2026-05-01 12:50 | 39.98529 | -78.49780 | 32050 ft | 365 kts | 271° |
| 2026-05-01 12:51 | 39.98682 | -78.56390 | 32044 ft | 366 kts | 271° |
| 2026-05-01 12:51 | 39.98831 | -78.62987 | 31783 ft | 366 kts | 271° |
| 2026-05-01 12:52 | 39.98906 | -78.66319 | 31290 ft | 367 kts | 271° |
| 2026-05-01 12:52 | 39.99056 | -78.72961 | 30305 ft | 366 kts | 271° |
| 2026-05-01 12:52 | 39.99130 | -78.76276 | 29883 ft | 364 kts | 271° |
| 2026-05-01 12:53 | 39.99265 | -78.82805 | 29309 ft | 359 kts | 271° |
| 2026-05-01 12:53 | 39.99332 | -78.86031 | 29070 ft | 359 kts | 271° |
| 2026-05-01 12:53 | 39.99400 | -78.89284 | 28821 ft | 360 kts | 271° |
| 2026-05-01 12:54 | 39.99465 | -78.92554 | 28572 ft | 360 kts | 271° |
| 2026-05-01 12:54 | 39.99593 | -78.98974 | 28119 ft | 340 kts | 271° |
| 2026-05-01 12:54 | 39.99652 | -79.01990 | 27693 ft | 327 kts | 271° |
| 2026-05-01 12:55 | 39.99759 | -79.07746 | 26710 ft | 308 kts | 270° |
| 2026-05-01 12:55 | 39.99810 | -79.10514 | 26139 ft | 303 kts | 270° |
| 2026-05-01 12:55 | 39.99859 | -79.13246 | 25589 ft | 298 kts | 270° |
| 2026-05-01 12:56 | 39.99907 | -79.15903 | 24991 ft | 295 kts | 270° |
| 2026-05-01 12:56 | 39.99952 | -79.18575 | 24387 ft | 293 kts | 270° |
| 2026-05-01 12:56 | 39.99999 | -79.21202 | 24284 ft | 285 kts | 270° |
| 2026-05-01 12:56 | 40.00047 | -79.23832 | 24545 ft | 300 kts | 270° |
| 2026-05-01 12:57 | 40.00094 | -79.26660 | 24425 ft | 321 kts | 270° |
| 2026-05-01 12:57 | 40.00195 | -79.32712 | 24240 ft | 341 kts | 269° |
| 2026-05-01 12:57 | 40.00246 | -79.35829 | 24161 ft | 345 kts | 270° |
| 2026-05-01 12:58 | 40.00301 | -79.38971 | 24076 ft | 347 kts | 270° |
| 2026-05-01 12:58 | 40.00353 | -79.42133 | 24018 ft | 349 kts | 270° |
| 2026-05-01 12:58 | 40.00399 | -79.45304 | 24029 ft | 350 kts | 269° |
| 2026-05-01 12:59 | 40.00492 | -79.51655 | 24028 ft | 349 kts | 269° |
| 2026-05-01 12:59 | 40.00538 | -79.54826 | 24033 ft | 350 kts | 269° |
| 2026-05-01 12:59 | 40.00626 | -79.61136 | 24026 ft | 350 kts | 269° |
| 2026-05-01 13:00 | 40.00712 | -79.67489 | 24024 ft | 350 kts | 269° |
| 2026-05-01 13:00 | 40.00754 | -79.70660 | 24024 ft | 350 kts | 269° |
| 2026-05-01 13:01 | 40.00834 | -79.77003 | 24023 ft | 349 kts | 269° |
| 2026-05-01 13:01 | 40.00873 | -79.80172 | 24030 ft | 349 kts | 269° |
| 2026-05-01 13:01 | 40.00950 | -79.86510 | 24030 ft | 349 kts | 269° |
| 2026-05-01 13:02 | 40.00987 | -79.89680 | 24029 ft | 350 kts | 269° |
| 2026-05-01 13:07 | 40.01561 | -80.56239 | 24032 ft | 350 kts | 269° |
| 2026-05-01 13:07 | 40.01575 | -80.58385 | 24031 ft | 350 kts | 269° |
| 2026-05-01 13:07 | 40.01595 | -80.61562 | 24023 ft | 350 kts | 269° |
| 2026-05-01 13:08 | 40.01610 | -80.64702 | 24007 ft | 350 kts | 269° |
| 2026-05-01 13:08 | 40.01624 | -80.67881 | 23994 ft | 350 kts | 269° |
| 2026-05-01 13:08 | 40.01638 | -80.71052 | 23994 ft | 350 kts | 269° |
| 2026-05-01 13:08 | 40.01650 | -80.74221 | 23996 ft | 350 kts | 269° |
| 2026-05-01 13:09 | 40.01665 | -80.77391 | 23995 ft | 350 kts | 269° |
| 2026-05-01 13:09 | 40.01616 | -80.80563 | 23894 ft | 350 kts | 263° |
| 2026-05-01 13:09 | 40.01031 | -80.83637 | 23710 ft | 350 kts | 251° |
| 2026-05-01 13:09 | 40.00172 | -80.86613 | 23466 ft | 351 kts | 251° |
| 2026-05-01 13:10 | 39.99306 | -80.89576 | 23169 ft | 348 kts | 251° |
| 2026-05-01 13:10 | 39.98437 | -80.92512 | 22895 ft | 344 kts | 251° |
| 2026-05-01 13:10 | 39.97567 | -80.95421 | 22652 ft | 344 kts | 251° |
| 2026-05-01 13:10 | 39.96704 | -80.98297 | 22408 ft | 344 kts | 251° |
| 2026-05-01 13:11 | 39.95833 | -81.01195 | 22161 ft | 343 kts | 251° |
| 2026-05-01 13:11 | 39.94962 | -81.04082 | 21912 ft | 342 kts | 251° |
| 2026-05-01 13:11 | 39.94087 | -81.06969 | 21657 ft | 341 kts | 250° |
| 2026-05-01 13:11 | 39.93211 | -81.09842 | 21407 ft | 340 kts | 250° |
| 2026-05-01 13:12 | 39.92341 | -81.12710 | 21150 ft | 339 kts | 250° |
| 2026-05-01 13:12 | 39.91483 | -81.15526 | 20908 ft | 338 kts | 250° |
| 2026-05-01 13:12 | 39.90616 | -81.18363 | 20651 ft | 336 kts | 250° |
| 2026-05-01 13:12 | 39.89753 | -81.21190 | 20407 ft | 336 kts | 250° |
| 2026-05-01 13:13 | 39.88890 | -81.24014 | 20159 ft | 335 kts | 250° |
| 2026-05-01 13:13 | 39.88028 | -81.26829 | 19908 ft | 334 kts | 250° |
| 2026-05-01 13:13 | 39.87175 | -81.29629 | 19656 ft | 331 kts | 250° |
| 2026-05-01 13:13 | 39.86320 | -81.32418 | 19409 ft | 332 kts | 250° |
| 2026-05-01 13:14 | 39.85468 | -81.35199 | 19151 ft | 331 kts | 250° |
| 2026-05-01 13:14 | 39.84613 | -81.37979 | 18911 ft | 330 kts | 250° |
| 2026-05-01 13:14 | 39.83757 | -81.40747 | 18663 ft | 330 kts | 250° |
| 2026-05-01 13:14 | 39.82903 | -81.43518 | 18414 ft | 329 kts | 250° |
| 2026-05-01 13:15 | 39.82052 | -81.46279 | 18159 ft | 328 kts | 250° |
| 2026-05-01 13:15 | 39.81205 | -81.49025 | 17905 ft | 327 kts | 250° |
| 2026-05-01 13:15 | 39.80374 | -81.51770 | 17654 ft | 325 kts | 251° |
| 2026-05-01 13:15 | 39.79576 | -81.54525 | 17413 ft | 326 kts | 251° |
| 2026-05-01 13:16 | 39.78775 | -81.57282 | 17154 ft | 325 kts | 251° |
| 2026-05-01 13:16 | 39.77970 | -81.60037 | 16900 ft | 326 kts | 251° |
| 2026-05-01 13:16 | 39.77163 | -81.62784 | 16651 ft | 325 kts | 251° |
| 2026-05-01 13:17 | 39.74761 | -81.70962 | 15898 ft | 324 kts | 251° |
| 2026-05-01 13:17 | 39.73958 | -81.73694 | 15649 ft | 323 kts | 251° |
| 2026-05-01 13:18 | 39.72352 | -81.79138 | 15149 ft | 322 kts | 251° |
| 2026-05-01 13:18 | 39.71551 | -81.81850 | 14900 ft | 321 kts | 251° |
| 2026-05-01 13:18 | 39.70753 | -81.84563 | 14651 ft | 321 kts | 251° |
| 2026-05-01 13:18 | 39.69951 | -81.87266 | 14399 ft | 321 kts | 251° |
| 2026-05-01 13:19 | 39.69150 | -81.89972 | 14150 ft | 320 kts | 251° |
| 2026-05-01 13:19 | 39.68344 | -81.92668 | 13894 ft | 320 kts | 250° |
| 2026-05-01 13:19 | 39.66739 | -81.98067 | 13393 ft | 320 kts | 251° |
| 2026-05-01 13:20 | 39.65939 | -82.00758 | 13142 ft | 319 kts | 251° |
| 2026-05-01 13:20 | 39.65146 | -82.03416 | 12891 ft | 310 kts | 251° |
| 2026-05-01 13:20 | 39.64387 | -82.05959 | 12622 ft | 294 kts | 251° |
| 2026-05-01 13:21 | 39.63093 | -82.10730 | 12116 ft | 268 kts | 263° |
| 2026-05-01 13:21 | 39.63193 | -82.13091 | 11876 ft | 260 kts | 283° |
| 2026-05-01 13:21 | 39.63954 | -82.15181 | 11649 ft | 262 kts | 300° |
| 2026-05-01 13:21 | 39.64999 | -82.17131 | 11418 ft | 264 kts | 302° |
| 2026-05-01 13:22 | 39.66077 | -82.19079 | 11156 ft | 266 kts | 302° |
| 2026-05-01 13:22 | 39.67163 | -82.21036 | 10892 ft | 268 kts | 302° |
| 2026-05-01 13:22 | 39.68259 | -82.22993 | 10642 ft | 268 kts | 302° |
| 2026-05-01 13:22 | 39.69364 | -82.24948 | 10397 ft | 268 kts | 302° |
| 2026-05-01 13:23 | 39.70465 | -82.26909 | 10149 ft | 269 kts | 303° |
| 2026-05-01 13:23 | 39.71579 | -82.28875 | 9895 ft | 269 kts | 303° |
| 2026-05-01 13:23 | 39.72690 | -82.30838 | 9644 ft | 270 kts | 303° |
| 2026-05-01 13:23 | 39.73799 | -82.32808 | 9397 ft | 270 kts | 304° |
| 2026-05-01 13:24 | 39.75123 | -82.34521 | 9477 ft | 269 kts | 317° |
| 2026-05-01 13:24 | 39.76632 | -82.36044 | 9243 ft | 279 kts | 317° |
| 2026-05-01 13:24 | 39.78145 | -82.37640 | 8833 ft | 280 kts | 317° |
| 2026-05-01 13:25 | 39.81146 | -82.40791 | 8043 ft | 276 kts | 317° |
| 2026-05-01 13:25 | 39.82622 | -82.42362 | 7676 ft | 273 kts | 317° |
| 2026-05-01 13:25 | 39.84078 | -82.43925 | 7321 ft | 270 kts | 317° |
| 2026-05-01 13:25 | 39.85523 | -82.45480 | 6962 ft | 268 kts | 317° |
| 2026-05-01 13:26 | 39.86957 | -82.47034 | 6606 ft | 267 kts | 316° |
| 2026-05-01 13:26 | 39.88389 | -82.48585 | 6260 ft | 268 kts | 316° |
| 2026-05-01 13:26 | 39.89815 | -82.50132 | 5886 ft | 265 kts | 317° |
| 2026-05-01 13:26 | 39.91221 | -82.51660 | 5531 ft | 261 kts | 316° |
| 2026-05-01 13:27 | 39.92610 | -82.53167 | 5185 ft | 257 kts | 317° |
| 2026-05-01 13:27 | 39.93963 | -82.54635 | 4830 ft | 249 kts | 317° |
| 2026-05-01 13:27 | 39.96538 | -82.57514 | 4413 ft | 227 kts | 304° |
| 2026-05-01 13:28 | 39.97624 | -82.60539 | 5893 ft | 187 kts | 278° |
| 2026-05-01 13:28 | 39.97709 | -82.62348 | 4963 ft | 214 kts | 267° |
| 2026-05-01 13:29 | 39.97958 | -82.66209 | 3915 ft | 200 kts | 272° |
| 2026-05-01 13:29 | 39.98142 | -82.69572 | 3920 ft | 184 kts | 271° |
| 2026-05-01 13:30 | 39.98526 | -82.76080 | 2440 ft | 159 kts | 271° |
| 2026-05-01 13:31 | 39.98679 | -82.78842 | 2117 ft | 153 kts | 273° |
| 2026-05-01 13:31 | 39.98929 | -82.82954 | 1515 ft | 151 kts | 273° |
| 2026-05-01 13:32 | 39.99071 | -82.85673 | 1103 ft | 151 kts | 273° |
| 2026-05-01 13:33 | 39.99267 | -82.89189 | 823 ft | 47 kts | 275° |
| 2026-05-01 13:33 | 39.99393 | -82.89663 | 821 ft | 0 kts | 300° |
| 2026-05-01 13:34 | 39.99464 | -82.89688 | 820 ft | 8 kts | 63° |
| 2026-05-01 13:34 | 39.99455 | -82.89378 | 821 ft | 22 kts | 96° |
| 2026-05-01 13:35 | 39.99538 | -82.89165 | 821 ft | 13 kts | 34° |
| 2026-05-01 13:35 | 39.99548 | -82.89044 | 823 ft | 18 kts | 95° |
| 2026-05-01 13:35 | 39.99522 | -82.88626 | 822 ft | 25 kts | 93° |
| 2026-05-01 13:36 | 39.99513 | -82.88400 | 823 ft | 25 kts | 92° |
| 2026-05-01 13:36 | 39.99502 | -82.88167 | 823 ft | 26 kts | 95° |
| 2026-05-01 13:36 | 39.99574 | -82.87919 | 823 ft | 15 kts | 6° |
| 2026-05-01 13:37 | 39.99698 | -82.87907 | 821 ft | 20 kts | 4° |
| 2026-05-01 13:37 | 39.99837 | -82.87894 | 821 ft | 19 kts | 5° |
| 2026-05-01 13:37 | 39.99947 | -82.87929 | 821 ft | 15 kts | 315° |
| 2026-05-01 13:37 | 39.99969 | -82.88046 | 823 ft | 13 kts | 274° |
| 2026-05-01 13:38 | 39.99989 | -82.88277 | 823 ft | 14 kts | 288° |
| 2026-05-01 13:38 | 40.00014 | -82.88390 | 823 ft | 12 kts | 277° |
| 2026-05-01 13:38 | 40.00006 | -82.88484 | 821 ft | 9 kts | 237° |
| 2026-05-01 13:39 | 39.99990 | -82.88498 | 823 ft | 3 kts | 211° |
| 2026-05-01 13:39 | 39.99976 | -82.88510 | 821 ft | 3 kts | 213° |
| 2026-05-01 13:39 | 39.99967 | -82.88517 | 823 ft | 0 kts | 212° |